sensor_id;sensor_type;location;lat;lon;timestamp;temperature;humidity
30678;DHT22;17437;47.188;8.896;2023-10-09T00:00:18;12.90;99.90
30678;DHT22;17437;47.188;8.896;2023-10-09T00:03:05;12.90;99.90
30678;DHT22;17437;47.188;8.896;2023-10-09T00:05:38;12.80;99.90
30678;DHT22;17437;47.188;8.896;2023-10-09T00:08:13;12.90;99.90
30678;DHT22;17437;47.188;8.896;2023-10-09T00:10:50;12.80;99.90
30678;DHT22;17437;47.188;8.896;2023-10-09T00:13:26;12.80;99.90
30678;DHT22;17437;47.188;8.896;2023-10-09T00:16:06;12.60;99.90
30678;DHT22;17437;47.188;8.896;2023-10-09T00:18:42;12.60;99.90
30678;DHT22;17437;47.188;8.896;2023-10-09T00:21:17;12.50;99.90
30678;DHT22;17437;47.188;8.896;2023-10-09T00:23:51;12.50;99.90
30678;DHT22;17437;47.188;8.896;2023-10-09T00:26:26;12.50;99.90
30678;DHT22;17437;47.188;8.896;2023-10-09T00:29:01;12.40;99.90
30678;DHT22;17437;47.188;8.896;2023-10-09T00:31:35;12.30;99.90
30678;DHT22;17437;47.188;8.896;2023-10-09T00:34:10;12.30;99.90
30678;DHT22;17437;47.188;8.896;2023-10-09T00:36:45;12.30;99.90
30678;DHT22;17437;47.188;8.896;2023-10-09T00:39:22;12.30;99.90
30678;DHT22;17437;47.188;8.896;2023-10-09T00:42:07;12.20;99.90
30678;DHT22;17437;47.188;8.896;2023-10-09T00:44:41;12.20;99.90
30678;DHT22;17437;47.188;8.896;2023-10-09T00:47:16;12.10;99.90
30678;DHT22;17437;47.188;8.896;2023-10-09T00:49:58;12.00;99.90
30678;DHT22;17437;47.188;8.896;2023-10-09T00:52:33;11.90;99.90
30678;DHT22;17437;47.188;8.896;2023-10-09T00:55:10;12.00;99.90
30678;DHT22;17437;47.188;8.896;2023-10-09T00:57:47;12.00;99.90
30678;DHT22;17437;47.188;8.896;2023-10-09T01:00:21;12.00;99.90
30678;DHT22;17437;47.188;8.896;2023-10-09T01:03:05;12.00;99.90
30678;DHT22;17437;47.188;8.896;2023-10-09T01:05:47;11.90;99.90
30678;DHT22;17437;47.188;8.896;2023-10-09T01:08:30;11.90;99.90
30678;DHT22;17437;47.188;8.896;2023-10-09T01:11:04;11.80;99.90
30678;DHT22;17437;47.188;8.896;2023-10-09T01:13:41;11.80;99.90
30678;DHT22;17437;47.188;8.896;2023-10-09T01:16:17;11.70;99.90
30678;DHT22;17437;47.188;8.896;2023-10-09T01:18:51;11.80;99.90
30678;DHT22;17437;47.188;8.896;2023-10-09T01:21:24;11.70;99.90
30678;DHT22;17437;47.188;8.896;2023-10-09T01:23:58;11.80;99.90
30678;DHT22;17437;47.188;8.896;2023-10-09T01:26:37;11.70;99.90
30678;DHT22;17437;47.188;8.896;2023-10-09T01:29:15;11.80;99.90
30678;DHT22;17437;47.188;8.896;2023-10-09T01:31:49;11.80;99.90
30678;DHT22;17437;47.188;8.896;2023-10-09T01:34:29;11.80;99.90
30678;DHT22;17437;47.188;8.896;2023-10-09T01:37:13;11.70;99.90
30678;DHT22;17437;47.188;8.896;2023-10-09T01:39:49;11.70;99.90
30678;DHT22;17437;47.188;8.896;2023-10-09T01:42:22;11.70;99.90
30678;DHT22;17437;47.188;8.896;2023-10-09T01:44:58;11.70;99.90
30678;DHT22;17437;47.188;8.896;2023-10-09T01:47:32;11.60;99.90
30678;DHT22;17437;47.188;8.896;2023-10-09T01:50:08;11.70;99.90
30678;DHT22;17437;47.188;8.896;2023-10-09T01:52:44;11.70;99.90
30678;DHT22;17437;47.188;8.896;2023-10-09T01:55:18;11.70;99.90
30678;DHT22;17437;47.188;8.896;2023-10-09T01:58:01;11.70;99.90
30678;DHT22;17437;47.188;8.896;2023-10-09T02:00:36;11.60;99.90
30678;DHT22;17437;47.188;8.896;2023-10-09T02:03:10;11.60;99.90
30678;DHT22;17437;47.188;8.896;2023-10-09T02:05:45;11.60;99.90
30678;DHT22;17437;47.188;8.896;2023-10-09T02:08:18;11.70;99.90
30678;DHT22;17437;47.188;8.896;2023-10-09T02:10:52;11.60;99.90
30678;DHT22;17437;47.188;8.896;2023-10-09T02:13:26;11.60;99.90
30678;DHT22;17437;47.188;8.896;2023-10-09T02:16:00;11.60;99.90
30678;DHT22;17437;47.188;8.896;2023-10-09T02:18:46;11.50;99.90
30678;DHT22;17437;47.188;8.896;2023-10-09T02:21:25;11.50;99.90
30678;DHT22;17437;47.188;8.896;2023-10-09T02:24:03;11.50;99.90
30678;DHT22;17437;47.188;8.896;2023-10-09T02:26:39;11.50;99.90
30678;DHT22;17437;47.188;8.896;2023-10-09T02:29:33;11.50;99.90
30678;DHT22;17437;47.188;8.896;2023-10-09T02:32:08;11.60;99.90
30678;DHT22;17437;47.188;8.896;2023-10-09T02:34:48;11.60;99.90
30678;DHT22;17437;47.188;8.896;2023-10-09T02:37:22;11.60;99.90
30678;DHT22;17437;47.188;8.896;2023-10-09T02:39:56;11.60;99.90
30678;DHT22;17437;47.188;8.896;2023-10-09T02:42:30;11.60;99.90
30678;DHT22;17437;47.188;8.896;2023-10-09T02:45:03;11.60;99.90
30678;DHT22;17437;47.188;8.896;2023-10-09T02:47:38;11.60;99.90
30678;DHT22;17437;47.188;8.896;2023-10-09T02:50:11;11.60;99.90
30678;DHT22;17437;47.188;8.896;2023-10-09T02:52:46;11.60;99.90
30678;DHT22;17437;47.188;8.896;2023-10-09T02:55:21;11.60;99.90
30678;DHT22;17437;47.188;8.896;2023-10-09T02:57:57;11.60;99.90
30678;DHT22;17437;47.188;8.896;2023-10-09T03:00:38;11.50;99.90
30678;DHT22;17437;47.188;8.896;2023-10-09T03:03:12;11.50;99.90
30678;DHT22;17437;47.188;8.896;2023-10-09T03:05:46;11.40;99.90
30678;DHT22;17437;47.188;8.896;2023-10-09T03:08:20;11.40;99.90
30678;DHT22;17437;47.188;8.896;2023-10-09T03:10:53;11.30;99.90
30678;DHT22;17437;47.188;8.896;2023-10-09T03:13:25;11.30;99.90
30678;DHT22;17437;47.188;8.896;2023-10-09T03:16:00;11.30;99.90
30678;DHT22;17437;47.188;8.896;2023-10-09T03:18:33;11.30;99.90
30678;DHT22;17437;47.188;8.896;2023-10-09T03:21:05;11.30;99.90
30678;DHT22;17437;47.188;8.896;2023-10-09T03:23:38;11.30;99.90
30678;DHT22;17437;47.188;8.896;2023-10-09T03:26:11;11.30;99.90
30678;DHT22;17437;47.188;8.896;2023-10-09T03:28:44;11.20;99.90
30678;DHT22;17437;47.188;8.896;2023-10-09T03:31:17;11.10;99.90
30678;DHT22;17437;47.188;8.896;2023-10-09T03:33:49;11.10;99.90
30678;DHT22;17437;47.188;8.896;2023-10-09T03:36:22;11.00;99.90
30678;DHT22;17437;47.188;8.896;2023-10-09T03:38:56;10.90;99.90
30678;DHT22;17437;47.188;8.896;2023-10-09T03:41:30;10.90;99.90
30678;DHT22;17437;47.188;8.896;2023-10-09T03:44:04;10.90;99.90
30678;DHT22;17437;47.188;8.896;2023-10-09T03:46:38;11.00;99.90
30678;DHT22;17437;47.188;8.896;2023-10-09T03:49:10;11.00;99.90
30678;DHT22;17437;47.188;8.896;2023-10-09T03:51:45;11.00;99.90
30678;DHT22;17437;47.188;8.896;2023-10-09T03:54:18;11.00;99.90
30678;DHT22;17437;47.188;8.896;2023-10-09T03:56:52;10.90;99.90
30678;DHT22;17437;47.188;8.896;2023-10-09T03:59:25;10.90;99.90
30678;DHT22;17437;47.188;8.896;2023-10-09T04:01:59;10.90;99.90
30678;DHT22;17437;47.188;8.896;2023-10-09T04:04:33;10.90;99.90
30678;DHT22;17437;47.188;8.896;2023-10-09T04:07:07;10.90;99.90
30678;DHT22;17437;47.188;8.896;2023-10-09T04:09:40;10.80;99.90
30678;DHT22;17437;47.188;8.896;2023-10-09T04:12:14;10.80;99.90
30678;DHT22;17437;47.188;8.896;2023-10-09T04:14:52;10.80;99.90
30678;DHT22;17437;47.188;8.896;2023-10-09T04:17:28;10.80;99.90
30678;DHT22;17437;47.188;8.896;2023-10-09T04:20:10;10.80;99.90
30678;DHT22;17437;47.188;8.896;2023-10-09T04:23:00;10.70;99.90
30678;DHT22;17437;47.188;8.896;2023-10-09T04:25:37;10.70;99.90
30678;DHT22;17437;47.188;8.896;2023-10-09T04:28:14;10.80;99.90
30678;DHT22;17437;47.188;8.896;2023-10-09T04:30:51;10.80;99.90
30678;DHT22;17437;47.188;8.896;2023-10-09T04:33:27;10.80;99.90
30678;DHT22;17437;47.188;8.896;2023-10-09T04:36:09;10.90;99.90
30678;DHT22;17437;47.188;8.896;2023-10-09T04:38:51;10.90;99.90
30678;DHT22;17437;47.188;8.896;2023-10-09T04:41:29;10.90;99.90
30678;DHT22;17437;47.188;8.896;2023-10-09T04:44:05;10.80;99.90
30678;DHT22;17437;47.188;8.896;2023-10-09T04:46:51;10.80;99.90
30678;DHT22;17437;47.188;8.896;2023-10-09T04:49:44;10.80;99.90
30678;DHT22;17437;47.188;8.896;2023-10-09T04:52:22;10.90;99.90
30678;DHT22;17437;47.188;8.896;2023-10-09T04:55:12;10.90;99.90
30678;DHT22;17437;47.188;8.896;2023-10-09T04:57:49;11.00;99.90
30678;DHT22;17437;47.188;8.896;2023-10-09T05:00:33;10.90;99.90
30678;DHT22;17437;47.188;8.896;2023-10-09T05:03:24;10.90;99.90
30678;DHT22;17437;47.188;8.896;2023-10-09T05:05:59;10.80;99.90
30678;DHT22;17437;47.188;8.896;2023-10-09T05:08:34;10.80;99.90
30678;DHT22;17437;47.188;8.896;2023-10-09T05:11:08;10.80;99.90
30678;DHT22;17437;47.188;8.896;2023-10-09T05:13:50;10.80;99.90
30678;DHT22;17437;47.188;8.896;2023-10-09T05:16:24;10.80;99.90
30678;DHT22;17437;47.188;8.896;2023-10-09T05:18:57;10.80;99.90
30678;DHT22;17437;47.188;8.896;2023-10-09T05:21:32;10.80;99.90
30678;DHT22;17437;47.188;8.896;2023-10-09T05:24:10;10.80;99.90
30678;DHT22;17437;47.188;8.896;2023-10-09T05:26:51;10.70;99.90
30678;DHT22;17437;47.188;8.896;2023-10-09T05:29:25;10.70;99.90
30678;DHT22;17437;47.188;8.896;2023-10-09T05:32:08;10.60;99.90
30678;DHT22;17437;47.188;8.896;2023-10-09T05:34:48;10.50;99.90
30678;DHT22;17437;47.188;8.896;2023-10-09T05:37:39;10.50;99.90
30678;DHT22;17437;47.188;8.896;2023-10-09T05:40:14;10.50;99.90
30678;DHT22;17437;47.188;8.896;2023-10-09T05:42:58;10.50;99.90
30678;DHT22;17437;47.188;8.896;2023-10-09T05:45:33;10.50;99.90
30678;DHT22;17437;47.188;8.896;2023-10-09T05:51:23;10.40;99.90
30678;DHT22;17437;47.188;8.896;2023-10-09T05:54:13;10.40;99.90
30678;DHT22;17437;47.188;8.896;2023-10-09T05:57:03;10.50;99.90
30678;DHT22;17437;47.188;8.896;2023-10-09T06:00:00;10.50;99.90
30678;DHT22;17437;47.188;8.896;2023-10-09T06:03:01;10.60;99.90
30678;DHT22;17437;47.188;8.896;2023-10-09T06:05:52;10.60;99.90
30678;DHT22;17437;47.188;8.896;2023-10-09T06:08:34;10.70;99.90
30678;DHT22;17437;47.188;8.896;2023-10-09T06:11:21;10.80;99.90
30678;DHT22;17437;47.188;8.896;2023-10-09T06:14:15;10.90;99.90
30678;DHT22;17437;47.188;8.896;2023-10-09T06:16:50;11.00;99.90
30678;DHT22;17437;47.188;8.896;2023-10-09T06:19:31;11.00;99.90
30678;DHT22;17437;47.188;8.896;2023-10-09T06:22:06;11.10;99.90
30678;DHT22;17437;47.188;8.896;2023-10-09T06:24:56;11.30;99.90
30678;DHT22;17437;47.188;8.896;2023-10-09T06:27:30;11.40;99.90
30678;DHT22;17437;47.188;8.896;2023-10-09T06:30:13;11.40;99.90
30678;DHT22;17437;47.188;8.896;2023-10-09T06:32:47;11.50;99.90
30678;DHT22;17437;47.188;8.896;2023-10-09T06:35:24;11.60;99.90
30678;DHT22;17437;47.188;8.896;2023-10-09T06:38:02;11.80;99.90
30678;DHT22;17437;47.188;8.896;2023-10-09T06:40:54;12.10;99.90
30678;DHT22;17437;47.188;8.896;2023-10-09T06:43:44;12.40;99.90
30678;DHT22;17437;47.188;8.896;2023-10-09T06:46:20;12.80;99.90
30678;DHT22;17437;47.188;8.896;2023-10-09T06:49:11;13.20;99.90
30678;DHT22;17437;47.188;8.896;2023-10-09T06:52:03;13.50;99.90
30678;DHT22;17437;47.188;8.896;2023-10-09T06:54:46;13.80;99.90
30678;DHT22;17437;47.188;8.896;2023-10-09T06:57:22;13.80;99.90
30678;DHT22;17437;47.188;8.896;2023-10-09T07:00:22;13.80;99.90
30678;DHT22;17437;47.188;8.896;2023-10-09T07:03:16;13.90;99.90
30678;DHT22;17437;47.188;8.896;2023-10-09T07:05:51;14.10;99.90
30678;DHT22;17437;47.188;8.896;2023-10-09T07:08:34;14.30;99.90
30678;DHT22;17437;47.188;8.896;2023-10-09T07:11:08;14.70;99.90
30678;DHT22;17437;47.188;8.896;2023-10-09T07:13:54;15.00;99.90
30678;DHT22;17437;47.188;8.896;2023-10-09T07:16:27;15.30;99.90
30678;DHT22;17437;47.188;8.896;2023-10-09T07:19:05;15.60;99.90
30678;DHT22;17437;47.188;8.896;2023-10-09T07:21:43;16.00;99.90
30678;DHT22;17437;47.188;8.896;2023-10-09T07:24:17;16.20;99.90
30678;DHT22;17437;47.188;8.896;2023-10-09T07:26:52;16.50;99.90
30678;DHT22;17437;47.188;8.896;2023-10-09T07:29:26;16.70;99.90
30678;DHT22;17437;47.188;8.896;2023-10-09T07:32:03;16.80;99.90
30678;DHT22;17437;47.188;8.896;2023-10-09T07:34:37;16.80;99.90
30678;DHT22;17437;47.188;8.896;2023-10-09T07:37:25;16.80;99.90
30678;DHT22;17437;47.188;8.896;2023-10-09T07:39:59;16.60;99.90
30678;DHT22;17437;47.188;8.896;2023-10-09T07:42:35;16.50;99.90
30678;DHT22;17437;47.188;8.896;2023-10-09T07:45:15;16.60;99.90
30678;DHT22;17437;47.188;8.896;2023-10-09T07:48:07;16.80;99.90
30678;DHT22;17437;47.188;8.896;2023-10-09T07:50:41;16.90;99.90
30678;DHT22;17437;47.188;8.896;2023-10-09T07:53:16;17.00;99.90
30678;DHT22;17437;47.188;8.896;2023-10-09T07:55:49;17.30;99.90
30678;DHT22;17437;47.188;8.896;2023-10-09T07:58:26;17.50;99.90
30678;DHT22;17437;47.188;8.896;2023-10-09T08:00:59;17.80;99.90
30678;DHT22;17437;47.188;8.896;2023-10-09T08:03:49;18.10;99.90
30678;DHT22;17437;47.188;8.896;2023-10-09T08:06:30;18.30;99.90
30678;DHT22;17437;47.188;8.896;2023-10-09T08:09:16;18.60;99.90
30678;DHT22;17437;47.188;8.896;2023-10-09T08:11:52;18.80;99.90
30678;DHT22;17437;47.188;8.896;2023-10-09T08:14:47;18.90;99.90
30678;DHT22;17437;47.188;8.896;2023-10-09T08:17:20;19.10;99.90
30678;DHT22;17437;47.188;8.896;2023-10-09T08:19:53;19.30;99.90
30678;DHT22;17437;47.188;8.896;2023-10-09T08:22:28;19.50;99.90
30678;DHT22;17437;47.188;8.896;2023-10-09T08:25:23;19.60;99.90
30678;DHT22;17437;47.188;8.896;2023-10-09T08:28:01;19.70;99.90
30678;DHT22;17437;47.188;8.896;2023-10-09T08:30:52;19.80;99.90
30678;DHT22;17437;47.188;8.896;2023-10-09T08:33:34;19.90;99.90
30678;DHT22;17437;47.188;8.896;2023-10-09T08:36:13;20.00;99.90
30678;DHT22;17437;47.188;8.896;2023-10-09T08:38:48;20.20;99.90
30678;DHT22;17437;47.188;8.896;2023-10-09T08:41:21;20.30;99.90
30678;DHT22;17437;47.188;8.896;2023-10-09T08:43:55;20.50;99.90
30678;DHT22;17437;47.188;8.896;2023-10-09T08:46:28;20.80;99.90
30678;DHT22;17437;47.188;8.896;2023-10-09T08:49:01;21.20;99.90
30678;DHT22;17437;47.188;8.896;2023-10-09T08:51:36;21.50;99.90
30678;DHT22;17437;47.188;8.896;2023-10-09T08:54:09;21.90;99.90
30678;DHT22;17437;47.188;8.896;2023-10-09T08:56:43;22.20;99.90
30678;DHT22;17437;47.188;8.896;2023-10-09T08:59:21;22.30;99.90
30678;DHT22;17437;47.188;8.896;2023-10-09T09:01:55;22.60;99.90
30678;DHT22;17437;47.188;8.896;2023-10-09T09:04:39;23.00;99.90
30678;DHT22;17437;47.188;8.896;2023-10-09T09:07:26;23.30;99.90
30678;DHT22;17437;47.188;8.896;2023-10-09T09:10:01;23.70;99.90
30678;DHT22;17437;47.188;8.896;2023-10-09T09:12:39;24.00;99.90
30678;DHT22;17437;47.188;8.896;2023-10-09T09:15:15;24.20;99.90
30678;DHT22;17437;47.188;8.896;2023-10-09T09:17:52;24.20;99.90
30678;DHT22;17437;47.188;8.896;2023-10-09T09:20:28;24.30;99.90
30678;DHT22;17437;47.188;8.896;2023-10-09T09:23:03;24.40;99.90
30678;DHT22;17437;47.188;8.896;2023-10-09T09:25:46;24.50;99.70
30678;DHT22;17437;47.188;8.896;2023-10-09T09:28:20;24.60;98.80
30678;DHT22;17437;47.188;8.896;2023-10-09T09:30:53;24.60;99.40
30678;DHT22;17437;47.188;8.896;2023-10-09T09:33:28;24.70;98.00
30678;DHT22;17437;47.188;8.896;2023-10-09T09:36:04;24.80;98.10
30678;DHT22;17437;47.188;8.896;2023-10-09T09:38:37;25.00;98.10
30678;DHT22;17437;47.188;8.896;2023-10-09T09:41:19;25.10;97.50
30678;DHT22;17437;47.188;8.896;2023-10-09T09:43:57;25.40;97.60
30678;DHT22;17437;47.188;8.896;2023-10-09T09:46:33;25.50;96.60
30678;DHT22;17437;47.188;8.896;2023-10-09T09:49:08;25.60;95.90
30678;DHT22;17437;47.188;8.896;2023-10-09T09:51:46;25.60;95.90
30678;DHT22;17437;47.188;8.896;2023-10-09T09:54:18;25.70;96.10
30678;DHT22;17437;47.188;8.896;2023-10-09T09:56:55;25.80;96.00
30678;DHT22;17437;47.188;8.896;2023-10-09T09:59:31;26.00;96.10
30678;DHT22;17437;47.188;8.896;2023-10-09T10:02:05;26.20;95.20
30678;DHT22;17437;47.188;8.896;2023-10-09T10:09:57;26.40;94.20
30678;DHT22;17437;47.188;8.896;2023-10-09T10:12:50;26.30;94.70
30678;DHT22;17437;47.188;8.896;2023-10-09T10:18:55;26.10;94.60
30678;DHT22;17437;47.188;8.896;2023-10-09T10:21:31;26.10;95.10
30678;DHT22;17437;47.188;8.896;2023-10-09T10:24:43;26.00;94.60
30678;DHT22;17437;47.188;8.896;2023-10-09T10:27:27;26.00;94.60
30678;DHT22;17437;47.188;8.896;2023-10-09T10:30:30;26.00;95.20
30678;DHT22;17437;47.188;8.896;2023-10-09T10:33:06;26.00;94.60
30678;DHT22;17437;47.188;8.896;2023-10-09T10:35:43;26.00;94.90
30678;DHT22;17437;47.188;8.896;2023-10-09T10:38:30;25.90;94.60
30678;DHT22;17437;47.188;8.896;2023-10-09T10:41:15;25.90;93.90
30678;DHT22;17437;47.188;8.896;2023-10-09T10:43:49;25.90;94.30
30678;DHT22;17437;47.188;8.896;2023-10-09T10:46:32;25.90;93.80
30678;DHT22;17437;47.188;8.896;2023-10-09T10:49:10;25.80;93.70
30678;DHT22;17437;47.188;8.896;2023-10-09T10:51:50;25.80;94.20
30678;DHT22;17437;47.188;8.896;2023-10-09T10:54:26;25.80;94.10
30678;DHT22;17437;47.188;8.896;2023-10-09T10:57:19;25.90;94.40
30678;DHT22;17437;47.188;8.896;2023-10-09T10:59:53;25.90;94.00
30678;DHT22;17437;47.188;8.896;2023-10-09T11:02:28;26.00;94.80
30678;DHT22;17437;47.188;8.896;2023-10-09T11:05:02;26.00;94.80
30678;DHT22;17437;47.188;8.896;2023-10-09T11:07:48;26.00;94.80
30678;DHT22;17437;47.188;8.896;2023-10-09T11:10:23;25.90;94.80
30678;DHT22;17437;47.188;8.896;2023-10-09T11:13:01;25.90;95.00
30678;DHT22;17437;47.188;8.896;2023-10-09T11:15:51;25.90;94.50
30678;DHT22;17437;47.188;8.896;2023-10-09T11:18:29;25.70;94.80
30678;DHT22;17437;47.188;8.896;2023-10-09T11:21:02;25.70;95.30
30678;DHT22;17437;47.188;8.896;2023-10-09T11:23:54;25.60;94.70
30678;DHT22;17437;47.188;8.896;2023-10-09T11:26:29;25.60;94.80
30678;DHT22;17437;47.188;8.896;2023-10-09T11:29:11;25.60;94.10
30678;DHT22;17437;47.188;8.896;2023-10-09T11:31:59;25.70;94.90
30678;DHT22;17437;47.188;8.896;2023-10-09T11:34:33;25.80;94.10
30678;DHT22;17437;47.188;8.896;2023-10-09T11:37:14;26.00;94.40
30678;DHT22;17437;47.188;8.896;2023-10-09T11:39:47;26.00;94.80
30678;DHT22;17437;47.188;8.896;2023-10-09T11:42:27;26.10;93.70
30678;DHT22;17437;47.188;8.896;2023-10-09T11:45:19;26.20;93.70
30678;DHT22;17437;47.188;8.896;2023-10-09T11:47:54;26.10;93.60
30678;DHT22;17437;47.188;8.896;2023-10-09T11:50:43;26.10;93.80
30678;DHT22;17437;47.188;8.896;2023-10-09T11:53:17;26.10;94.10
30678;DHT22;17437;47.188;8.896;2023-10-09T11:55:53;26.00;93.90
30678;DHT22;17437;47.188;8.896;2023-10-09T11:58:26;25.90;93.40
30678;DHT22;17437;47.188;8.896;2023-10-09T12:00:59;25.80;94.20
30678;DHT22;17437;47.188;8.896;2023-10-09T12:03:36;25.80;94.20
30678;DHT22;17437;47.188;8.896;2023-10-09T12:06:10;25.90;93.10
30678;DHT22;17437;47.188;8.896;2023-10-09T12:08:44;25.80;93.20
30678;DHT22;17437;47.188;8.896;2023-10-09T12:11:18;25.80;93.70
30678;DHT22;17437;47.188;8.896;2023-10-09T12:13:55;25.80;93.40
30678;DHT22;17437;47.188;8.896;2023-10-09T12:16:29;25.70;93.60
30678;DHT22;17437;47.188;8.896;2023-10-09T12:19:03;25.70;94.20
30678;DHT22;17437;47.188;8.896;2023-10-09T12:21:37;25.80;93.80
30678;DHT22;17437;47.188;8.896;2023-10-09T12:24:11;25.80;93.60
30678;DHT22;17437;47.188;8.896;2023-10-09T12:26:43;25.90;93.20
30678;DHT22;17437;47.188;8.896;2023-10-09T12:29:17;25.90;93.00
30678;DHT22;17437;47.188;8.896;2023-10-09T12:31:51;25.80;93.50
30678;DHT22;17437;47.188;8.896;2023-10-09T12:34:26;25.70;94.00
30678;DHT22;17437;47.188;8.896;2023-10-09T12:36:59;25.60;94.40
30678;DHT22;17437;47.188;8.896;2023-10-09T12:39:32;25.50;95.00
30678;DHT22;17437;47.188;8.896;2023-10-09T12:42:05;25.40;95.50
30678;DHT22;17437;47.188;8.896;2023-10-09T12:44:39;25.40;94.80
30678;DHT22;17437;47.188;8.896;2023-10-09T12:47:12;25.30;95.20
30678;DHT22;17437;47.188;8.896;2023-10-09T12:49:46;25.20;95.30
30678;DHT22;17437;47.188;8.896;2023-10-09T12:52:20;25.20;95.40
30678;DHT22;17437;47.188;8.896;2023-10-09T12:54:55;25.10;95.80
30678;DHT22;17437;47.188;8.896;2023-10-09T12:57:28;25.10;96.20
30678;DHT22;17437;47.188;8.896;2023-10-09T13:00:02;25.10;96.40
30678;DHT22;17437;47.188;8.896;2023-10-09T13:02:36;25.10;96.90
30678;DHT22;17437;47.188;8.896;2023-10-09T13:05:10;25.10;96.80
30678;DHT22;17437;47.188;8.896;2023-10-09T13:07:45;25.00;96.80
30678;DHT22;17437;47.188;8.896;2023-10-09T13:10:18;25.00;96.30
30678;DHT22;17437;47.188;8.896;2023-10-09T13:12:51;25.00;96.50
30678;DHT22;17437;47.188;8.896;2023-10-09T13:15:27;24.90;96.60
30678;DHT22;17437;47.188;8.896;2023-10-09T13:17:59;24.90;97.20
30678;DHT22;17437;47.188;8.896;2023-10-09T13:20:32;24.90;96.80
30678;DHT22;17437;47.188;8.896;2023-10-09T13:23:06;24.80;96.40
30678;DHT22;17437;47.188;8.896;2023-10-09T13:25:38;24.80;97.20
30678;DHT22;17437;47.188;8.896;2023-10-09T13:28:11;24.80;96.60
30678;DHT22;17437;47.188;8.896;2023-10-09T13:30:45;24.80;97.60
30678;DHT22;17437;47.188;8.896;2023-10-09T13:33:21;24.70;97.20
30678;DHT22;17437;47.188;8.896;2023-10-09T13:35:54;24.70;97.20
30678;DHT22;17437;47.188;8.896;2023-10-09T13:38:27;24.70;97.20
30678;DHT22;17437;47.188;8.896;2023-10-09T13:41:01;24.60;97.20
30678;DHT22;17437;47.188;8.896;2023-10-09T13:43:35;24.60;96.60
30678;DHT22;17437;47.188;8.896;2023-10-09T13:46:09;24.60;96.80
30678;DHT22;17437;47.188;8.896;2023-10-09T13:48:43;24.60;98.30
30678;DHT22;17437;47.188;8.896;2023-10-09T13:51:16;24.60;99.90
30678;DHT22;17437;47.188;8.896;2023-10-09T13:53:53;24.60;97.50
30678;DHT22;17437;47.188;8.896;2023-10-09T13:56:25;24.60;97.40
30678;DHT22;17437;47.188;8.896;2023-10-09T13:58:58;24.60;97.10
30678;DHT22;17437;47.188;8.896;2023-10-09T14:01:31;24.50;99.30
30678;DHT22;17437;47.188;8.896;2023-10-09T14:04:05;24.50;97.60
30678;DHT22;17437;47.188;8.896;2023-10-09T14:06:38;24.40;97.80
30678;DHT22;17437;47.188;8.896;2023-10-09T14:09:13;24.30;98.00
30678;DHT22;17437;47.188;8.896;2023-10-09T14:12:02;24.20;97.90
30678;DHT22;17437;47.188;8.896;2023-10-09T14:14:39;24.10;98.30
30678;DHT22;17437;47.188;8.896;2023-10-09T14:17:15;24.00;98.60
30678;DHT22;17437;47.188;8.896;2023-10-09T14:19:51;24.00;98.80
30678;DHT22;17437;47.188;8.896;2023-10-09T14:22:25;23.90;99.50
30678;DHT22;17437;47.188;8.896;2023-10-09T14:24:58;23.90;99.50
30678;DHT22;17437;47.188;8.896;2023-10-09T14:27:32;23.80;98.90
30678;DHT22;17437;47.188;8.896;2023-10-09T14:30:08;23.80;99.20
30678;DHT22;17437;47.188;8.896;2023-10-09T14:32:43;23.70;99.90
30678;DHT22;17437;47.188;8.896;2023-10-09T14:35:17;23.70;99.00
30678;DHT22;17437;47.188;8.896;2023-10-09T14:37:51;23.70;99.00
30678;DHT22;17437;47.188;8.896;2023-10-09T14:40:24;23.70;99.20
30678;DHT22;17437;47.188;8.896;2023-10-09T14:43:03;23.60;99.10
30678;DHT22;17437;47.188;8.896;2023-10-09T14:45:38;23.60;99.80
30678;DHT22;17437;47.188;8.896;2023-10-09T14:48:10;23.60;99.50
30678;DHT22;17437;47.188;8.896;2023-10-09T14:50:48;23.60;99.90
30678;DHT22;17437;47.188;8.896;2023-10-09T14:53:21;23.50;99.90
30678;DHT22;17437;47.188;8.896;2023-10-09T14:58:40;23.50;99.90
30678;DHT22;17437;47.188;8.896;2023-10-09T15:01:13;23.40;99.90
30678;DHT22;17437;47.188;8.896;2023-10-09T15:03:47;23.40;99.90
30678;DHT22;17437;47.188;8.896;2023-10-09T15:06:21;23.50;99.90
30678;DHT22;17437;47.188;8.896;2023-10-09T15:08:55;23.40;99.90
30678;DHT22;17437;47.188;8.896;2023-10-09T15:11:27;23.40;99.90
30678;DHT22;17437;47.188;8.896;2023-10-09T15:14:00;23.40;99.90
30678;DHT22;17437;47.188;8.896;2023-10-09T15:16:37;23.50;99.90
30678;DHT22;17437;47.188;8.896;2023-10-09T15:19:10;23.50;99.90
30678;DHT22;17437;47.188;8.896;2023-10-09T15:21:43;23.60;99.90
30678;DHT22;17437;47.188;8.896;2023-10-09T15:24:18;23.60;99.90
30678;DHT22;17437;47.188;8.896;2023-10-09T15:26:52;23.60;99.90
30678;DHT22;17437;47.188;8.896;2023-10-09T15:29:28;23.60;99.90
30678;DHT22;17437;47.188;8.896;2023-10-09T15:32:03;23.70;99.90
30678;DHT22;17437;47.188;8.896;2023-10-09T15:34:38;23.70;99.90
30678;DHT22;17437;47.188;8.896;2023-10-09T15:37:10;23.80;99.90
30678;DHT22;17437;47.188;8.896;2023-10-09T15:39:45;23.80;99.90
30678;DHT22;17437;47.188;8.896;2023-10-09T15:42:18;23.80;99.90
30678;DHT22;17437;47.188;8.896;2023-10-09T15:44:53;23.80;99.90
30678;DHT22;17437;47.188;8.896;2023-10-09T15:47:26;23.80;99.90
30678;DHT22;17437;47.188;8.896;2023-10-09T15:50:00;23.80;99.90
30678;DHT22;17437;47.188;8.896;2023-10-09T15:52:37;23.80;99.90
30678;DHT22;17437;47.188;8.896;2023-10-09T15:55:12;23.70;99.90
30678;DHT22;17437;47.188;8.896;2023-10-09T15:57:44;23.50;99.90
30678;DHT22;17437;47.188;8.896;2023-10-09T16:00:17;23.40;99.90
30678;DHT22;17437;47.188;8.896;2023-10-09T16:02:51;23.20;99.90
30678;DHT22;17437;47.188;8.896;2023-10-09T16:05:24;23.10;99.90
30678;DHT22;17437;47.188;8.896;2023-10-09T16:07:57;22.90;99.90
30678;DHT22;17437;47.188;8.896;2023-10-09T16:10:31;22.70;99.90
30678;DHT22;17437;47.188;8.896;2023-10-09T16:13:04;22.60;99.90
30678;DHT22;17437;47.188;8.896;2023-10-09T16:15:42;22.40;99.90
30678;DHT22;17437;47.188;8.896;2023-10-09T16:18:15;22.30;99.90
30678;DHT22;17437;47.188;8.896;2023-10-09T16:20:48;22.20;99.90
30678;DHT22;17437;47.188;8.896;2023-10-09T16:23:20;22.10;99.90
30678;DHT22;17437;47.188;8.896;2023-10-09T16:25:52;21.90;99.90
30678;DHT22;17437;47.188;8.896;2023-10-09T16:28:25;21.80;99.90
30678;DHT22;17437;47.188;8.896;2023-10-09T16:30:57;21.70;99.90
30678;DHT22;17437;47.188;8.896;2023-10-09T16:33:31;21.60;99.90
30678;DHT22;17437;47.188;8.896;2023-10-09T16:36:05;21.50;99.90
30678;DHT22;17437;47.188;8.896;2023-10-09T16:38:38;21.40;99.90
30678;DHT22;17437;47.188;8.896;2023-10-09T16:41:11;21.30;99.90
30678;DHT22;17437;47.188;8.896;2023-10-09T16:43:45;21.30;99.90
30678;DHT22;17437;47.188;8.896;2023-10-09T16:46:17;21.10;99.90